Time,TemperatureF,DewpointF,PressureIn,WindDirection,WindDirectionDegrees,WindSpeedMPH,WindSpeedGustMPH,Humidity,HourlyPrecipIn,Conditions,Clouds,dailyrainin,SoftwareType,DateUTC
2013-04-07 01:02:00,53.3,51.0,30.16,North,360,0.0,0.0,91,0.00,,,0.00,weatherlink.com 1.10,2013-04-07 08:02:00,
2013-04-07 01:53:00,53.3,51.0,30.15,North,360,0.0,0.0,92,0.00,,,0.00,weatherlink.com 1.10,2013-04-07 08:53:00,
2013-04-07 02:08:00,53.3,51.0,30.15,North,360,0.0,0.0,91,0.00,,,0.00,weatherlink.com 1.10,2013-04-07 09:08:00,
2013-04-07 02:23:00,53.4,51.0,30.14,North,360,0.0,0.0,91,0.00,,,0.00,weatherlink.com 1.10,2013-04-07 09:23:00,
2013-04-07 02:38:00,53.5,51.0,30.14,North,360,0.0,1.0,92,0.00,,,0.00,weatherlink.com 1.10,2013-04-07 09:38:00,
2013-04-07 02:53:00,53.5,51.0,30.13,North,360,0.0,2.0,92,0.00,,,0.00,weatherlink.com 1.10,2013-04-07 09:53:00,
2013-04-07 03:08:00,53.6,51.0,30.12,North,360,0.0,0.0,91,0.00,,,0.00,weatherlink.com 1.10,2013-04-07 10:08:00,
2013-04-07 03:23:00,53.6,51.0,30.12,North,360,0.0,0.0,92,0.00,,,0.00,weatherlink.com 1.10,2013-04-07 10:23:00,
2013-04-07 03:38:00,53.6,51.0,30.11,North,360,0.0,1.0,92,0.00,,,0.00,weatherlink.com 1.10,2013-04-07 10:38:00,
2013-04-07 03:53:00,53.5,51.0,30.11,North,360,0.0,1.0,92,0.00,,,0.00,weatherlink.com 1.10,2013-04-07 10:53:00,
2013-04-07 04:08:00,53.5,51.0,30.11,North,360,0.0,1.0,92,0.00,,,0.00,weatherlink.com 1.10,2013-04-07 11:08:00,
2013-04-07 04:23:00,53.4,51.0,30.11,North,360,0.0,1.0,92,0.00,,,0.00,weatherlink.com 1.10,2013-04-07 11:23:00,
2013-04-07 04:38:00,53.3,51.0,30.11,North,360,0.0,1.0,93,0.00,,,0.00,weatherlink.com 1.10,2013-04-07 11:38:00,
2013-04-07 04:53:00,53.2,51.0,30.11,North,360,0.0,1.0,93,0.00,,,0.00,weatherlink.com 1.10,2013-04-07 11:53:00,
2013-04-07 05:08:00,53.1,52.0,30.10,North,360,0.0,0.0,94,0.00,,,0.00,weatherlink.com 1.10,2013-04-07 12:08:00,
2013-04-07 05:23:00,53.1,52.0,30.10,North,360,0.0,2.0,95,0.00,,,0.00,weatherlink.com 1.10,2013-04-07 12:23:00,
2013-04-07 05:38:00,53.0,52.0,30.10,North,360,0.0,1.0,95,0.00,,,0.00,weatherlink.com 1.10,2013-04-07 12:38:00,
2013-04-07 05:53:00,53.0,52.0,30.10,North,360,0.0,0.0,95,0.00,,,0.00,weatherlink.com 1.10,2013-04-07 12:53:00,
2013-04-07 06:08:00,53.0,52.0,30.10,North,360,0.0,0.0,96,0.00,,,0.00,weatherlink.com 1.10,2013-04-07 13:08:00,
2013-04-07 06:23:00,53.1,52.0,30.10,North,360,0.0,1.0,96,0.00,,,0.00,weatherlink.com 1.10,2013-04-07 13:23:00,
2013-04-07 06:38:00,53.1,52.0,30.10,North,360,0.0,1.0,96,0.00,,,0.00,weatherlink.com 1.10,2013-04-07 13:38:00,
2013-04-07 06:53:00,53.1,52.0,30.10,North,360,0.0,0.0,96,0.00,,,0.00,weatherlink.com 1.10,2013-04-07 13:53:00,
2013-04-07 07:08:00,53.2,52.0,30.10,North,360,0.0,1.0,96,0.01,,,0.01,weatherlink.com 1.10,2013-04-07 14:08:00,
2013-04-07 07:23:00,53.3,53.0,30.11,North,360,0.0,0.0,97,0.01,,,0.01,weatherlink.com 1.10,2013-04-07 14:23:00,
2013-04-07 07:53:00,53.5,53.0,30.10,North,360,0.0,1.0,97,0.01,,,0.01,weatherlink.com 1.10,2013-04-07 14:53:00,
2013-04-07 08:24:00,54.0,53.0,30.10,North,360,0.0,3.0,97,0.00,,,0.01,weatherlink.com 1.10,2013-04-07 15:24:00,
2013-04-07 08:38:00,54.2,53.0,30.10,North,360,0.0,2.0,97,0.00,,,0.01,weatherlink.com 1.10,2013-04-07 15:38:00,
2013-04-07 08:53:00,54.4,54.0,30.09,North,360,0.0,1.0,97,0.00,,,0.01,weatherlink.com 1.10,2013-04-07 15:53:00,
2013-04-07 09:39:00,55.2,54.0,30.10,NNW,327,0.0,2.0,96,0.00,,,0.01,weatherlink.com 1.10,2013-04-07 16:39:00,
2013-04-07 09:53:00,55.4,54.0,30.10,WSW,247,1.0,4.0,96,0.00,,,0.01,weatherlink.com 1.10,2013-04-07 16:53:00,
2013-04-07 10:09:00,55.6,55.0,30.10,SW,236,1.0,3.0,96,0.00,,,0.01,weatherlink.com 1.10,2013-04-07 17:09:00,
2013-04-07 10:24:00,55.8,54.0,30.10,SW,236,0.0,1.0,95,0.00,,,0.01,weatherlink.com 1.10,2013-04-07 17:24:00,
2013-04-07 10:39:00,56.2,55.0,30.10,SW,233,0.0,2.0,94,0.00,,,0.01,weatherlink.com 1.10,2013-04-07 17:39:00,
2013-04-07 10:54:00,56.9,54.0,30.10,WSW,257,1.0,1.0,91,0.00,,,0.01,weatherlink.com 1.10,2013-04-07 17:54:00,
2013-04-07 11:39:00,60.4,56.0,30.08,NNE,18,1.0,3.0,86,0.00,,,0.01,weatherlink.com 1.10,2013-04-07 18:39:00,
2013-04-07 11:54:00,61.1,56.0,30.08,North,5,0.0,2.0,82,0.00,,,0.01,weatherlink.com 1.10,2013-04-07 18:54:00,
2013-04-07 12:09:00,62.4,56.0,30.07,North,355,1.0,4.0,79,0.00,,,0.01,weatherlink.com 1.10,2013-04-07 19:09:00,
2013-04-07 12:39:00,63.0,55.0,30.05,South,182,1.0,6.0,76,0.00,,,0.01,weatherlink.com 1.10,2013-04-07 19:39:00,
2013-04-07 12:54:00,63.4,55.0,30.04,SW,217,2.0,2.0,74,0.00,,,0.01,weatherlink.com 1.10,2013-04-07 19:54:00,
2013-04-07 13:09:00,64.3,55.0,30.04,SW,221,0.0,7.0,71,0.00,,,0.01,weatherlink.com 1.10,2013-04-07 20:09:00,
2013-04-07 13:24:00,65.7,55.0,30.03,SW,214,4.0,8.0,68,0.00,,,0.01,weatherlink.com 1.10,2013-04-07 20:24:00,
2013-04-07 13:39:00,65.2,55.0,30.02,East,85,3.0,8.0,69,0.00,,,0.01,weatherlink.com 1.10,2013-04-07 20:39:00,
2013-04-07 13:54:00,65.8,54.0,30.00,SE,130,2.0,9.0,66,0.00,,,0.01,weatherlink.com 1.10,2013-04-07 20:54:00,
2013-04-07 14:09:00,66.7,54.0,29.99,SSE,166,2.0,9.0,65,0.00,,,0.01,weatherlink.com 1.10,2013-04-07 21:09:00,
2013-04-07 14:24:00,67.3,54.0,29.99,South,188,4.0,6.0,62,0.00,,,0.01,weatherlink.com 1.10,2013-04-07 21:24:00,
2013-04-07 14:39:00,68.0,55.0,29.99,SSE,155,1.0,7.0,63,0.00,,,0.01,weatherlink.com 1.10,2013-04-07 21:39:00,
2013-04-07 14:54:00,67.9,54.0,29.98,South,190,1.0,8.0,61,0.00,,,0.01,weatherlink.com 1.10,2013-04-07 21:54:00,
2013-04-07 15:09:00,66.7,53.0,29.97,SSE,163,2.0,7.0,62,0.00,,,0.01,weatherlink.com 1.10,2013-04-07 22:09:00,
2013-04-07 15:24:00,65.6,52.0,29.98,SE,126,3.0,6.0,61,0.00,,,0.01,weatherlink.com 1.10,2013-04-07 22:24:00,
2013-04-07 15:39:00,64.9,52.0,29.97,SW,227,3.0,7.0,64,0.00,,,0.01,weatherlink.com 1.10,2013-04-07 22:39:00,
2013-04-07 15:54:00,65.3,52.0,29.96,South,184,2.0,6.0,62,0.00,,,0.01,weatherlink.com 1.10,2013-04-07 22:54:00,
2013-04-07 16:09:00,65.0,52.0,29.96,South,184,2.0,8.0,62,0.00,,,0.01,weatherlink.com 1.10,2013-04-07 23:09:00,
2013-04-07 16:24:00,64.0,51.0,29.96,SW,214,2.0,5.0,64,0.00,,,0.01,weatherlink.com 1.10,2013-04-07 23:24:00,
2013-04-07 16:39:00,63.4,51.0,29.95,SSW,206,4.0,5.0,65,0.00,,,0.01,weatherlink.com 1.10,2013-04-07 23:39:00,
2013-04-07 16:54:00,63.4,50.0,29.95,SSW,201,4.0,7.0,63,0.00,,,0.01,weatherlink.com 1.10,2013-04-07 23:54:00,
2013-04-07 17:10:00,63.0,50.0,29.95,SSW,207,4.0,9.0,62,0.00,,,0.01,weatherlink.com 1.10,2013-04-08 00:10:00,
2013-04-07 17:25:00,61.2,47.0,29.95,SW,234,1.0,10.0,61,0.00,,,0.01,weatherlink.com 1.10,2013-04-08 00:25:00,
2013-04-07 17:40:00,59.5,48.0,29.94,SW,227,5.0,11.0,65,0.00,,,0.01,weatherlink.com 1.10,2013-04-08 00:40:00,
2013-04-07 17:55:00,58.5,47.0,29.94,SW,220,9.0,10.0,66,0.00,,,0.01,weatherlink.com 1.10,2013-04-08 00:55:00,
2013-04-07 18:10:00,57.3,47.0,29.94,SSW,192,7.0,11.0,68,0.00,,,0.01,weatherlink.com 1.10,2013-04-08 01:10:00,
2013-04-07 18:25:00,56.3,46.0,29.94,WSW,238,3.0,14.0,68,0.00,,,0.01,weatherlink.com 1.10,2013-04-08 01:25:00,
2013-04-07 18:40:00,55.7,46.0,29.95,SSW,209,4.0,12.0,69,0.00,,,0.01,weatherlink.com 1.10,2013-04-08 01:40:00,
2013-04-07 18:55:00,55.5,45.0,29.94,SSW,213,4.0,8.0,69,0.00,,,0.01,weatherlink.com 1.10,2013-04-08 01:55:00,
2013-04-07 19:10:00,55.2,46.0,29.94,SW,215,5.0,5.0,71,0.00,,,0.01,weatherlink.com 1.10,2013-04-08 02:10:00,
2013-04-07 19:25:00,54.6,46.0,29.93,SSW,200,3.0,7.0,72,0.00,,,0.01,weatherlink.com 1.10,2013-04-08 02:25:00,
2013-04-07 19:55:00,53.2,46.0,29.92,SSW,196,3.0,4.0,76,0.00,,,0.01,weatherlink.com 1.10,2013-04-08 02:55:00,
2013-04-07 20:25:00,52.7,46.0,29.91,SW,228,1.0,3.0,79,0.00,,,0.01,weatherlink.com 1.10,2013-04-08 03:25:00,
2013-04-07 20:40:00,52.5,47.0,29.90,SW,228,0.0,3.0,81,0.00,,,0.01,weatherlink.com 1.10,2013-04-08 03:40:00,
2013-04-07 20:55:00,52.2,47.0,29.89,SW,224,1.0,3.0,83,0.00,,,0.01,weatherlink.com 1.10,2013-04-08 03:55:00,
2013-04-07 21:10:00,51.9,47.0,29.89,SSW,213,0.0,2.0,84,0.00,,,0.01,weatherlink.com 1.10,2013-04-08 04:10:00,
2013-04-07 21:25:00,51.5,47.0,29.88,SSW,212,0.0,2.0,85,0.00,,,0.01,weatherlink.com 1.10,2013-04-08 04:25:00,
2013-04-07 21:40:00,51.2,48.0,29.87,SSW,212,0.0,1.0,88,0.01,,,0.02,weatherlink.com 1.10,2013-04-08 04:40:00,
2013-04-07 21:55:00,50.8,48.0,29.85,WSW,255,0.0,1.0,91,0.01,,,0.02,weatherlink.com 1.10,2013-04-08 04:55:00,
2013-04-07 22:10:00,50.6,48.0,29.84,WSW,255,0.0,0.0,92,0.01,,,0.02,weatherlink.com 1.10,2013-04-08 05:10:00,
2013-04-07 22:25:00,50.5,49.0,29.83,WSW,255,0.0,1.0,93,0.02,,,0.03,weatherlink.com 1.10,2013-04-08 05:25:00,
2013-04-07 22:40:00,50.4,49.0,29.82,WSW,255,0.0,1.0,94,0.02,,,0.04,weatherlink.com 1.10,2013-04-08 05:40:00,
2013-04-07 22:55:00,50.4,49.0,29.82,SSW,210,0.0,3.0,94,0.02,,,0.04,weatherlink.com 1.10,2013-04-08 05:55:00,
2013-04-07 23:10:00,50.5,49.0,29.82,SW,236,2.0,8.0,94,0.02,,,0.04,weatherlink.com 1.10,2013-04-08 06:10:00,
2013-04-07 23:25:00,51.3,49.0,29.81,West,267,5.0,7.0,91,0.01,,,0.04,weatherlink.com 1.10,2013-04-08 06:25:00,
2013-04-07 23:40:00,51.1,47.0,29.82,SSW,213,2.0,9.0,86,0.00,,,0.04,weatherlink.com 1.10,2013-04-08 06:40:00,
2013-04-07 23:55:00,50.5,46.0,29.81,SW,220,5.0,9.0,85,0.00,,,0.04,weatherlink.com 1.10,2013-04-08 06:55:00,